Time;durP1;ratioP1;P1;durP2;ratioP2;P2;SDS_P1;SDS_P2;PMS_P1;PMS_P2;Temp;Humidity;BMP_temperature;BMP_pressure;BME280_temperature;BME280_humidity;BME280_pressure;Samples;Min_cycle;Max_cycle;Signal;HPM_P1;HPM_P2
2021/10/13 00:00:30;;;;;;;;;;;;;;;7.48;100.00;99717.84;1613837;87;20140;-78
2021/10/13 00:03:02;;;;;;;;;;;;;;;7.42;100.00;99721.87;1610936;87;20195;-79
2021/10/13 00:05:27;;;;;;;;;;;;;;;7.46;100.00;99723.73;1616053;87;22558;-76
2021/10/13 00:07:53;;;;;;;;;;;;;;;7.45;100.00;99729.45;1591913;88;20166;-79
2021/10/13 00:10:21;;;;;;;;;;;;;;;7.42;100.00;99724.50;1615318;87;20167;-79
2021/10/13 00:12:46;;;;;;;;;;;;;;;7.39;100.00;99722.16;1609832;87;20189;-78
2021/10/13 00:15:17;;;;;;;;;;;;;;;7.44;100.00;99721.72;1589033;88;20259;-78
2021/10/13 00:17:46;;;;;;;;;;;;;;;7.49;100.00;99717.69;1611502;87;21014;-78
2021/10/13 00:20:11;;;;;;;;;;;;;;;7.47;100.00;99719.65;1611550;87;21334;-78
2021/10/13 00:22:41;;;;;;;;;;;;;;;7.46;100.00;99723.23;1610770;87;20215;-78
2021/10/13 00:25:08;;;;;;;;;;;;;;;7.51;100.00;99715.73;1615316;87;20157;-78
2021/10/13 00:27:34;;;;;;;;;;;;;;;7.48;100.00;99718.66;1593163;87;20198;-79
2021/10/13 00:30:00;;;;;;;;;;;;;;;7.63;100.00;99715.05;1610817;87;22015;-78
2021/10/13 00:32:28;;;;;;;;;;;;;;;7.64;100.00;99710.12;1613188;87;20122;-79
2021/10/13 00:34:54;;;;;;;;;;;;;;;7.59;100.00;99710.23;1610372;87;20152;-78
2021/10/13 00:37:21;;;;;;;;;;;;;;;7.61;100.00;99716.16;1612567;87;20163;-78
2021/10/13 00:39:47;;;;;;;;;;;;;;;7.66;100.00;99715.23;1611751;86;20482;-78
2021/10/13 00:42:14;;;;;;;;;;;;;;;7.66;100.00;99725.73;1611432;87;21247;-79
2021/10/13 00:44:44;;;;;;;;;;;;;;;7.63;100.00;99726.87;1614997;88;20209;-79
2021/10/13 00:47:13;;;;;;;;;;;;;;;7.60;100.00;99734.21;1612015;87;20201;-79
2021/10/13 00:49:44;;;;;;;;;;;;;;;7.46;100.00;99727.67;1608829;87;20717;-79
2021/10/13 00:52:11;;;;;;;;;;;;;;;7.53;100.00;99732.17;1607763;87;20542;-79
2021/10/13 00:54:41;;;;;;;;;;;;;;;7.48;100.00;99734.42;1612074;87;20160;-80
2021/10/13 00:57:06;;;;;;;;;;;;;;;7.53;100.00;99733.48;1612917;87;20223;-78
2021/10/13 00:59:33;;;;;;;;;;;;;;;7.52;100.00;99734.97;1612552;87;20219;-79
2021/10/13 01:02:13;;;;;;;;;;;;;;;7.39;100.00;99740.55;1613346;87;20189;-77
2021/10/13 01:05:16;;;;;;;;;;;;;;;7.44;100.00;99729.14;1614992;87;20223;-77
2021/10/13 01:08:04;;;;;;;;;;;;;;;7.37;100.00;99726.73;1610404;87;21225;-77
2021/10/13 01:11:07;;;;;;;;;;;;;;;7.39;100.00;99727.41;1588418;88;20200;-76
2021/10/13 01:13:39;;;;;;;;;;;;;;;7.40;100.00;99732.20;1613676;87;20972;-77
2021/10/13 01:16:15;;;;;;;;;;;;;;;7.45;100.00;99734.71;1612450;87;20225;-79
2021/10/13 01:19:06;;;;;;;;;;;;;;;7.58;100.00;99736.16;1609565;87;20169;-79
2021/10/13 01:21:51;;;;;;;;;;;;;;;7.49;100.00;99741.34;1588673;87;22415;-78
2021/10/13 01:24:36;;;;;;;;;;;;;;;7.49;100.00;99739.20;1613841;88;20205;-79
2021/10/13 01:27:37;;;;;;;;;;;;;;;7.48;100.00;99740.98;1612587;87;20512;-79
2021/10/13 01:30:06;;;;;;;;;;;;;;;7.44;100.00;99746.21;1613050;87;20167;-77
2021/10/13 01:32:34;;;;;;;;;;;;;;;7.45;100.00;99748.34;1587912;88;20459;-78
2021/10/13 01:35:02;;;;;;;;;;;;;;;7.35;100.00;99744.45;1589906;88;21172;-78
2021/10/13 01:37:34;;;;;;;;;;;;;;;7.26;100.00;99745.33;1589238;87;20201;-78
2021/10/13 01:40:02;;;;;;;;;;;;;;;7.16;100.00;99747.50;1613615;87;20210;-77
2021/10/13 01:42:29;;;;;;;;;;;;;;;7.25;100.00;99753.67;1615123;87;20242;-77
2021/10/13 01:44:58;;;;;;;;;;;;;;;7.23;100.00;99752.18;1592410;88;20224;-76
2021/10/13 01:47:28;;;;;;;;;;;;;;;7.11;100.00;99747.08;1615286;87;21271;-77
2021/10/13 01:49:55;;;;;;;;;;;;;;;7.07;100.00;99748.83;1564857;88;20652;-77
2021/10/13 01:52:25;;;;;;;;;;;;;;;7.09;100.00;99758.23;1575550;88;20490;-77
2021/10/13 01:54:55;;;;;;;;;;;;;;;6.94;100.00;99763.09;1581674;89;20209;-77
2021/10/13 01:57:29;;;;;;;;;;;;;;;6.95;100.00;99761.32;1586728;88;20231;-78
2021/10/13 01:59:58;;;;;;;;;;;;;;;6.80;100.00;99756.98;1581342;89;21196;-77
2021/10/13 02:02:28;;;;;;;;;;;;;;;6.77;100.00;99764.65;1585832;89;20183;-77
2021/10/13 02:04:54;;;;;;;;;;;;;;;6.70;100.00;99768.83;1583905;89;20563;-77
2021/10/13 02:07:24;;;;;;;;;;;;;;;6.70;100.00;99771.45;1557119;89;20195;-77
2021/10/13 02:09:53;;;;;;;;;;;;;;;6.67;100.00;99769.11;1580684;89;20549;-77
2021/10/13 02:12:22;;;;;;;;;;;;;;;6.56;100.00;99777.13;1582879;89;21351;-77
2021/10/13 02:14:50;;;;;;;;;;;;;;;6.55;100.00;99774.16;1558169;89;20152;-77
2021/10/13 02:17:17;;;;;;;;;;;;;;;6.47;100.00;99777.47;1586672;88;20317;-77
2021/10/13 02:19:45;;;;;;;;;;;;;;;6.56;100.00;99787.63;1582688;89;20236;-79
2021/10/13 02:22:12;;;;;;;;;;;;;;;6.42;100.00;99789.69;1558674;89;20141;-79
2021/10/13 02:24:49;;;;;;;;;;;;;;;6.38;100.00;99784.37;1583216;88;21306;-77
2021/10/13 02:27:29;;;;;;;;;;;;;;;6.32;100.00;99793.28;1582944;89;20477;-77
2021/10/13 02:30:00;;;;;;;;;;;;;;;6.40;100.00;99790.33;1564648;89;20191;-78
2021/10/13 02:32:28;;;;;;;;;;;;;;;6.46;100.00;99791.08;1584630;88;20153;-77
2021/10/13 02:34:53;;;;;;;;;;;;;;;6.42;100.00;99792.31;1580460;89;20481;-77
2021/10/13 02:37:23;;;;;;;;;;;;;;;6.50;100.00;99790.80;1561839;89;20943;-77
2021/10/13 02:39:54;;;;;;;;;;;;;;;6.51;100.00;99788.51;1584302;89;20523;-77
2021/10/13 02:42:20;;;;;;;;;;;;;;;6.38;100.00;99804.04;1558823;90;20160;-77
2021/10/13 02:44:48;;;;;;;;;;;;;;;6.23;100.00;99794.92;1561744;89;20236;-78
2021/10/13 02:47:41;;;;;;;;;;;;;;;6.10;100.00;99800.43;1565520;89;20140;-78
2021/10/13 02:50:43;;;;;;;;;;;;;;;6.11;100.00;99808.16;1582319;89;20696;-77
2021/10/13 02:53:35;;;;;;;;;;;;;;;5.98;100.00;99810.23;1602664;87;20158;-78
2021/10/13 02:56:15;;;;;;;;;;;;;;;5.80;100.00;99809.18;1621074;87;20600;-77
2021/10/13 02:58:50;;;;;;;;;;;;;;;5.73;100.00;99817.58;1616425;87;20143;-77
2021/10/13 03:01:23;;;;;;;;;;;;;;;5.59;100.00;99820.53;1616849;88;20201;-79
2021/10/13 03:03:59;;;;;;;;;;;;;;;5.60;100.00;99808.29;1617363;87;20602;-80
2021/10/13 03:06:32;;;;;;;;;;;;;;;5.63;100.00;99820.63;1591526;87;20359;-79
2021/10/13 03:09:02;;;;;;;;;;;;;;;5.57;100.00;99825.09;1621513;87;20490;-76
2021/10/13 03:11:28;;;;;;;;;;;;;;;5.61;100.00;99823.88;1620712;87;20143;-77
2021/10/13 03:13:56;;;;;;;;;;;;;;;5.63;100.00;99825.87;1624092;87;20208;-77
2021/10/13 03:16:22;;;;;;;;;;;;;;;5.61;100.00;99832.19;1618042;87;21132;-79
2021/10/13 03:18:47;;;;;;;;;;;;;;;5.59;100.00;99832.33;1623276;87;20239;-77
2021/10/13 03:21:14;;;;;;;;;;;;;;;5.56;100.00;99839.13;1619562;87;20738;-78
2021/10/13 03:23:40;;;;;;;;;;;;;;;5.66;100.00;99843.13;1620047;87;20189;-78
2021/10/13 03:26:15;;;;;;;;;;;;;;;5.55;100.00;99842.25;1620531;87;20833;-77
2021/10/13 03:28:46;;;;;;;;;;;;;;;5.65;100.00;99848.83;1621044;87;20181;-77
2021/10/13 03:31:19;;;;;;;;;;;;;;;5.68;100.00;99847.73;1622621;86;20465;-77
2021/10/13 03:33:53;;;;;;;;;;;;;;;5.60;100.00;99861.50;1620897;87;20217;-78
2021/10/13 03:36:23;;;;;;;;;;;;;;;5.69;100.00;99855.47;1617004;87;20159;-77
2021/10/13 03:38:49;;;;;;;;;;;;;;;5.74;100.00;99857.69;1594140;87;20190;-78
2021/10/13 03:41:24;;;;;;;;;;;;;;;5.81;100.00;99857.98;1625094;87;21175;-77
2021/10/13 03:43:50;;;;;;;;;;;;;;;5.88;100.00;99851.26;1618439;87;20189;-78
2021/10/13 03:46:18;;;;;;;;;;;;;;;5.97;100.00;99858.36;1610726;87;20152;-79
2021/10/13 03:48:51;;;;;;;;;;;;;;;6.05;100.00;99853.27;1620981;87;20115;-77
2021/10/13 03:51:19;;;;;;;;;;;;;;;6.01;100.00;99846.66;1619806;87;20186;-77
2021/10/13 03:53:52;;;;;;;;;;;;;;;5.98;100.00;99853.47;1608280;88;22027;-77
2021/10/13 03:56:21;;;;;;;;;;;;;;;5.88;100.00;99851.26;1567564;88;20221;-76
2021/10/13 03:58:50;;;;;;;;;;;;;;;5.87;100.00;99858.30;1562987;88;20197;-78
2021/10/13 04:01:22;;;;;;;;;;;;;;;5.84;100.00;99857.72;1592102;88;21242;-76
2021/10/13 04:03:52;;;;;;;;;;;;;;;5.80;100.00;99858.97;1592425;88;20221;-76
2021/10/13 04:06:22;;;;;;;;;;;;;;;5.86;100.00;99857.13;1595338;88;21144;-76
2021/10/13 04:08:53;;;;;;;;;;;;;;;5.82;100.00;99864.41;1590632;88;20164;-77
2021/10/13 04:11:19;;;;;;;;;;;;;;;5.86;100.00;99866.30;1590965;88;21008;-76
2021/10/13 04:13:47;;;;;;;;;;;;;;;6.00;100.00;99865.95;1592379;88;20203;-76
2021/10/13 04:16:13;;;;;;;;;;;;;;;5.87;100.00;99868.78;1601452;87;20895;-77
2021/10/13 04:18:41;;;;;;;;;;;;;;;5.96;100.00;99873.69;1591780;88;21192;-77
2021/10/13 04:21:10;;;;;;;;;;;;;;;6.03;100.00;99876.17;1592858;88;20190;-76
2021/10/13 04:23:39;;;;;;;;;;;;;;;6.00;100.00;99875.12;1591398;88;20236;-77
2021/10/13 04:26:07;;;;;;;;;;;;;;;5.91;100.00;99871.96;1594342;88;20247;-77
2021/10/13 04:28:34;;;;;;;;;;;;;;;6.09;100.00;99870.85;1589819;88;21115;-76
2021/10/13 04:31:08;;;;;;;;;;;;;;;6.13;100.00;99872.75;1589256;88;20112;-76
2021/10/13 04:33:40;;;;;;;;;;;;;;;6.11;100.00;99875.50;1591486;88;20215;-77
2021/10/13 04:36:08;;;;;;;;;;;;;;;6.09;100.00;99878.26;1598838;87;20506;-76
2021/10/13 04:38:37;;;;;;;;;;;;;;;6.21;100.00;99880.76;1589777;88;20179;-77
2021/10/13 04:41:04;;;;;;;;;;;;;;;6.23;100.00;99881.44;1594590;88;20207;-76
2021/10/13 04:43:31;;;;;;;;;;;;;;;6.18;100.00;99886.27;1595932;88;21939;-77
2021/10/13 04:46:00;;;;;;;;;;;;;;;6.24;100.00;99877.87;1588962;88;20627;-79
2021/10/13 04:48:29;;;;;;;;;;;;;;;6.23;100.00;99884.06;1588781;88;20191;-78
2021/10/13 04:50:54;;;;;;;;;;;;;;;6.21;100.00;99883.38;1593195;88;20497;-79
2021/10/13 04:53:20;;;;;;;;;;;;;;;6.28;100.00;99887.14;1607865;87;20748;-80
2021/10/13 04:55:46;;;;;;;;;;;;;;;6.29;100.00;99875.66;1619939;87;21985;-79
2021/10/13 04:58:14;;;;;;;;;;;;;;;6.34;100.00;99881.35;1618747;87;20188;-78
2021/10/13 05:00:42;;;;;;;;;;;;;;;6.38;100.00;99882.72;1622723;87;20364;-80
2021/10/13 05:03:10;;;;;;;;;;;;;;;6.36;100.00;99878.10;1619321;87;20212;-78
2021/10/13 05:05:38;;;;;;;;;;;;;;;6.33;100.00;99878.86;1614705;87;20241;-80
2021/10/13 05:08:07;;;;;;;;;;;;;;;6.33;100.00;99888.05;1592418;88;20230;-79
2021/10/13 05:10:35;;;;;;;;;;;;;;;6.50;100.00;99895.23;1613303;87;20123;-78
2021/10/13 05:13:02;;;;;;;;;;;;;;;6.53;100.00;99894.16;1609494;87;20234;-80
2021/10/13 05:15:27;;;;;;;;;;;;;;;6.65;100.00;99908.80;1609295;88;20214;-76
2021/10/13 05:17:53;;;;;;;;;;;;;;;6.60;100.00;99909.67;1612494;87;20186;-81
2021/10/13 05:20:22;;;;;;;;;;;;;;;6.68;100.00;99914.23;1612718;88;21137;-78
2021/10/13 05:22:48;;;;;;;;;;;;;;;6.64;100.00;99922.88;1619966;88;20120;-78
2021/10/13 05:25:13;;;;;;;;;;;;;;;6.67;100.00;99920.47;1615543;87;20204;-78
2021/10/13 05:27:42;;;;;;;;;;;;;;;6.62;100.00;99925.63;1584720;88;20442;-77
2021/10/13 05:30:12;;;;;;;;;;;;;;;6.71;100.00;99927.09;1617065;87;20203;-78
2021/10/13 05:32:38;;;;;;;;;;;;;;;6.85;100.00;99935.86;1582981;88;22126;-78
2021/10/13 05:35:06;;;;;;;;;;;;;;;6.85;100.00;99932.41;1590911;88;20166;-80
2021/10/13 05:37:32;;;;;;;;;;;;;;;6.96;100.00;99937.06;1589272;88;20156;-76
2021/10/13 05:40:00;;;;;;;;;;;;;;;6.83;100.00;99942.56;1624287;87;20213;-78
2021/10/13 05:42:28;;;;;;;;;;;;;;;6.97;100.00;99939.19;1592851;87;20186;-76
2021/10/13 05:44:58;;;;;;;;;;;;;;;6.93;100.00;99947.84;1571400;88;21010;-76
2021/10/13 05:47:28;;;;;;;;;;;;;;;6.77;100.00;99954.09;1615820;87;20260;-76
2021/10/13 05:49:57;;;;;;;;;;;;;;;6.86;100.00;99953.77;1608850;87;20187;-78
2021/10/13 05:52:24;;;;;;;;;;;;;;;6.91;100.00;99954.17;1613981;87;21252;-77
2021/10/13 05:54:53;;;;;;;;;;;;;;;6.89;100.00;99962.69;1611067;87;20116;-77
2021/10/13 05:57:22;;;;;;;;;;;;;;;6.70;100.00;99969.56;1588581;88;21294;-77
2021/10/13 05:59:56;;;;;;;;;;;;;;;6.78;100.00;99964.45;1611979;87;20118;-77
2021/10/13 06:02:18;;;;;;;;;;;;;;;6.81;100.00;99970.75;1611803;87;20129;-77
2021/10/13 06:04:50;;;;;;;;;;;;;;;6.85;100.00;99977.03;1567528;88;20114;-77
2021/10/13 06:07:18;;;;;;;;;;;;;;;6.88;100.00;99985.45;1612749;87;20889;-78
2021/10/13 06:09:43;;;;;;;;;;;;;;;6.82;100.00;99988.63;1591941;87;22600;-77
2021/10/13 06:12:09;;;;;;;;;;;;;;;6.86;100.00;99993.14;1611749;87;20270;-75
2021/10/13 06:14:39;;;;;;;;;;;;;;;6.91;100.00;99999.63;1587503;88;20154;-75
2021/10/13 06:17:06;;;;;;;;;;;;;;;6.97;100.00;100003.52;1613091;87;20184;-76
2021/10/13 06:19:33;;;;;;;;;;;;;;;6.79;100.00;100008.12;1608424;87;20271;-77
2021/10/13 06:22:05;;;;;;;;;;;;;;;6.87;100.00;100015.31;1590738;88;21216;-78
2021/10/13 06:24:32;;;;;;;;;;;;;;;6.97;100.00;100019.27;1613438;88;20222;-78
2021/10/13 06:27:00;;;;;;;;;;;;;;;7.07;100.00;100018.80;1612739;88;20225;-79
2021/10/13 06:29:29;;;;;;;;;;;;;;;7.01;100.00;100020.66;1614373;87;20181;-78
2021/10/13 06:31:56;;;;;;;;;;;;;;;6.97;100.00;100027.14;1611982;87;20515;-79
2021/10/13 06:34:25;;;;;;;;;;;;;;;7.05;100.00;100025.14;1615642;87;22009;-77
2021/10/13 06:36:52;;;;;;;;;;;;;;;7.03;100.00;100026.59;1614409;87;20208;-76
2021/10/13 06:39:19;;;;;;;;;;;;;;;7.15;100.00;100020.25;1614644;87;20164;-76
2021/10/13 06:41:45;;;;;;;;;;;;;;;7.25;100.00;100024.68;1591788;87;20181;-77
2021/10/13 06:44:12;;;;;;;;;;;;;;;7.33;100.00;100020.41;1611673;87;20189;-77
2021/10/13 06:46:43;;;;;;;;;;;;;;;7.29;100.00;100023.45;1615055;87;22598;-77
2021/10/13 06:49:08;;;;;;;;;;;;;;;7.38;100.00;100031.81;1611639;87;20643;-77
2021/10/13 06:51:36;;;;;;;;;;;;;;;7.41;100.00;100033.31;1615524;87;20242;-81
2021/10/13 06:54:03;;;;;;;;;;;;;;;7.40;100.00;100036.44;1610722;87;20118;-77
2021/10/13 06:56:29;;;;;;;;;;;;;;;7.43;100.00;100044.04;1611593;87;20246;-78
2021/10/13 06:58:57;;;;;;;;;;;;;;;7.43;100.00;100041.41;1611878;87;21125;-80
2021/10/13 07:01:29;;;;;;;;;;;;;;;7.45;100.00;100050.47;1589638;88;20137;-79
2021/10/13 07:03:55;;;;;;;;;;;;;;;7.43;100.00;100045.85;1614135;87;20167;-80
2021/10/13 07:06:22;;;;;;;;;;;;;;;7.42;100.00;100051.56;1614760;87;20176;-79
2021/10/13 07:08:51;;;;;;;;;;;;;;;7.53;100.00;100047.48;1617092;87;20209;-76
2021/10/13 07:11:21;;;;;;;;;;;;;;;7.43;100.00;100056.36;1614546;87;20152;-78
2021/10/13 07:13:46;;;;;;;;;;;;;;;7.47;100.00;100057.72;1612826;88;20166;-79
2021/10/13 07:16:13;;;;;;;;;;;;;;;7.50;100.00;100063.55;1612823;88;21287;-80
2021/10/13 07:18:38;;;;;;;;;;;;;;;7.53;100.00;100065.88;1611201;88;20166;-78
2021/10/13 07:21:05;;;;;;;;;;;;;;;7.53;100.00;100065.88;1612314;88;20481;-78
2021/10/13 07:23:33;;;;;;;;;;;;;;;7.53;100.00;100071.13;1613901;88;21221;-77
2021/10/13 07:26:00;;;;;;;;;;;;;;;7.62;100.00;100077.86;1613472;88;20220;-77
2021/10/13 07:28:28;;;;;;;;;;;;;;;7.63;100.00;100075.55;1613186;88;20144;-77
2021/10/13 07:30:53;;;;;;;;;;;;;;;7.55;100.00;100078.41;1613830;88;20186;-78
2021/10/13 07:33:19;;;;;;;;;;;;;;;7.75;100.00;100078.38;1610830;87;20301;-80
2021/10/13 07:35:45;;;;;;;;;;;;;;;7.80;100.00;100082.76;1608297;87;21254;-79
2021/10/13 07:38:13;;;;;;;;;;;;;;;7.87;100.00;100083.84;1612535;87;20510;-78
2021/10/13 07:40:40;;;;;;;;;;;;;;;7.84;100.00;100101.20;1614639;87;20275;-80
2021/10/13 07:43:08;;;;;;;;;;;;;;;7.90;100.00;100092.76;1613221;87;20721;-80
2021/10/13 07:45:36;;;;;;;;;;;;;;;7.98;100.00;100097.81;1592456;87;20198;-78
2021/10/13 07:48:04;;;;;;;;;;;;;;;7.76;100.00;100099.77;1612489;87;21109;-79
2021/10/13 07:50:38;;;;;;;;;;;;;;;7.84;100.00;100093.81;1609774;87;20114;-79
2021/10/13 07:53:06;;;;;;;;;;;;;;;7.84;100.00;100101.20;1614958;87;20635;-79
2021/10/13 07:55:33;;;;;;;;;;;;;;;7.77;100.00;100097.49;1613544;87;20847;-79
2021/10/13 07:58:00;;;;;;;;;;;;;;;7.83;100.00;100100.88;1613918;87;20595;-79
2021/10/13 08:00:26;;;;;;;;;;;;;;;7.81;100.00;100106.74;1613206;88;21152;-79
2021/10/13 08:02:56;;;;;;;;;;;;;;;7.86;100.00;100100.60;1616013;87;20976;-78
2021/10/13 08:05:22;;;;;;;;;;;;;;;7.85;100.00;100101.56;1611762;87;21041;-79
2021/10/13 08:07:47;;;;;;;;;;;;;;;7.84;100.00;100105.15;1619224;87;20897;-77
2021/10/13 08:10:14;;;;;;;;;;;;;;;7.85;100.00;100100.25;1616502;87;20165;-79
2021/10/13 08:12:42;;;;;;;;;;;;;;;7.91;100.00;100106.27;1615729;87;21179;-77
2021/10/13 08:15:08;;;;;;;;;;;;;;;7.88;100.00;100107.86;1591136;87;20225;-76
2021/10/13 08:17:35;;;;;;;;;;;;;;;7.84;98.23;100115.66;1619732;87;21041;-78
2021/10/13 08:20:03;;;;;;;;;;;;;;;7.88;97.28;100106.54;1616646;87;20189;-78
2021/10/13 08:22:28;;;;;;;;;;;;;;;7.99;96.84;100114.77;1616565;87;20104;-76
2021/10/13 08:24:54;;;;;;;;;;;;;;;8.02;95.88;100111.03;1615409;87;21165;-78
2021/10/13 08:27:25;;;;;;;;;;;;;;;8.06;96.29;100108.45;1616732;87;20933;-77
2021/10/13 08:29:52;;;;;;;;;;;;;;;8.02;97.19;100121.55;1613570;87;20203;-79
2021/10/13 08:32:17;;;;;;;;;;;;;;;7.95;97.45;100119.13;1612316;88;20180;-78
2021/10/13 08:34:45;;;;;;;;;;;;;;;8.01;97.37;100124.65;1614920;87;20239;-76
2021/10/13 08:37:10;;;;;;;;;;;;;;;8.03;97.50;100121.87;1593723;88;21239;-76
2021/10/13 08:39:39;;;;;;;;;;;;;;;8.14;96.37;100117.80;1616130;87;20161;-78
2021/10/13 08:42:05;;;;;;;;;;;;;;;8.12;96.14;100124.16;1613683;87;20163;-77
2021/10/13 08:44:32;;;;;;;;;;;;;;;8.18;94.26;100124.91;1616322;87;20176;-77
2021/10/13 08:47:02;;;;;;;;;;;;;;;8.29;93.46;100123.92;1614795;87;20092;-77
2021/10/13 08:49:29;;;;;;;;;;;;;;;8.43;92.32;100131.36;1592790;87;21245;-78
2021/10/13 08:51:57;;;;;;;;;;;;;;;8.48;91.28;100118.63;1622152;87;20205;-78
2021/10/13 08:54:25;;;;;;;;;;;;;;;8.60;90.76;100120.11;1610712;86;20091;-77
2021/10/13 08:56:53;;;;;;;;;;;;;;;8.78;90.30;100126.77;1583410;89;20235;-78
2021/10/13 08:59:39;;;;;;;;;;;;;;;8.80;90.35;100122.18;1585628;89;20296;-78
2021/10/13 09:02:07;;;;;;;;;;;;;;;8.93;89.76;100133.72;1583657;89;20174;-78
2021/10/13 09:04:33;;;;;;;;;;;;;;;8.85;89.40;100137.55;1566510;89;21153;-77
2021/10/13 09:07:03;;;;;;;;;;;;;;;8.95;89.47;100127.81;1545393;88;20177;-78
2021/10/13 09:09:29;;;;;;;;;;;;;;;9.00;88.82;100131.82;1559105;88;20501;-78
2021/10/13 09:11:59;;;;;;;;;;;;;;;9.09;88.57;100138.81;1587038;89;20310;-78
2021/10/13 09:14:29;;;;;;;;;;;;;;;9.07;87.90;100147.36;1582972;89;20196;-80
2021/10/13 09:17:08;;;;;;;;;;;;;;;8.98;87.61;100140.69;1587593;89;20196;-78
2021/10/13 09:19:50;;;;;;;;;;;;;;;9.08;87.33;100134.54;1566864;89;20215;-79
2021/10/13 09:22:18;;;;;;;;;;;;;;;9.03;87.64;100139.42;1587160;89;20169;-80
2021/10/13 09:24:47;;;;;;;;;;;;;;;8.95;88.12;100135.71;1585573;89;20230;-77
2021/10/13 09:27:30;;;;;;;;;;;;;;;9.08;87.80;100138.49;1561801;89;20855;-76
2021/10/13 09:30:03;;;;;;;;;;;;;;;9.21;86.35;100141.59;1586316;88;20727;-77
2021/10/13 09:32:29;;;;;;;;;;;;;;;9.39;85.43;100139.50;1584380;89;20670;-77
2021/10/13 09:34:57;;;;;;;;;;;;;;;9.45;85.72;100138.41;1583736;89;20146;-78
2021/10/13 09:37:23;;;;;;;;;;;;;;;9.52;84.83;100141.27;1588026;89;20648;-80
2021/10/13 09:40:00;;;;;;;;;;;;;;;9.55;84.80;100150.19;1586962;88;21209;-80
2021/10/13 09:42:38;;;;;;;;;;;;;;;9.53;84.36;100141.61;1584097;89;20206;-80
2021/10/13 09:45:10;;;;;;;;;;;;;;;9.70;84.28;100143.92;1582500;89;20186;-79
2021/10/13 09:47:39;;;;;;;;;;;;;;;9.64;82.26;100149.80;1585261;88;20905;-79
2021/10/13 09:50:14;;;;;;;;;;;;;;;9.65;82.08;100147.00;1581445;89;20678;-79
2021/10/13 09:52:41;;;;;;;;;;;;;;;9.81;82.16;100139.72;1587294;89;21177;-82
2021/10/13 09:55:11;;;;;;;;;;;;;;;9.92;81.92;100133.89;1596809;87;20209;-81
2021/10/13 09:57:48;;;;;;;;;;;;;;;9.97;82.56;100140.34;1588824;87;20343;-82
2021/10/13 10:00:21;;;;;;;;;;;;;;;9.94;80.58;100147.24;1553866;90;20206;-79
2021/10/13 10:02:57;;;;;;;;;;;;;;;9.87;80.32;100150.98;1536851;90;20224;-80
2021/10/13 10:05:27;;;;;;;;;;;;;;;9.89;80.66;100145.56;1585365;88;20575;-81
2021/10/13 10:08:10;;;;;;;;;;;;;;;9.83;80.47;100156.72;1606385;87;20181;-78
2021/10/13 10:10:37;;;;;;;;;;;;;;;9.98;80.25;100144.66;1609171;87;21188;-79
2021/10/13 10:13:20;;;;;;;;;;;;;;;9.89;80.19;100140.28;1609107;87;20767;-80
2021/10/13 10:15:52;;;;;;;;;;;;;;;10.05;80.17;100143.07;1608449;87;20540;-80
2021/10/13 10:18:32;;;;;;;;;;;;;;;10.23;79.31;100142.20;1621622;86;20191;-79
2021/10/13 10:21:23;;;;;;;;;;;;;;;10.29;78.41;100144.23;1604415;86;20600;-78
2021/10/13 10:23:59;;;;;;;;;;;;;;;10.53;78.12;100148.03;1625471;86;20140;-80
2021/10/13 10:26:31;;;;;;;;;;;;;;;10.46;77.56;100149.66;1632578;86;20139;-81
2021/10/13 10:29:02;;;;;;;;;;;;;;;10.43;75.53;100156.06;1601584;88;20165;-82
2021/10/13 10:31:35;;;;;;;;;;;;;;;10.28;74.80;100158.39;1620639;87;20994;-80
2021/10/13 10:34:17;;;;;;;;;;;;;;;10.18;74.48;100161.64;1587340;87;39877;-81
2021/10/13 10:36:49;;;;;;;;;;;;;;;10.10;74.25;100165.52;1621343;87;20190;-81
2021/10/13 10:39:18;;;;;;;;;;;;;;;10.14;71.58;100164.23;1618441;87;20729;-79
2021/10/13 10:41:54;;;;;;;;;;;;;;;10.04;72.62;100171.74;1620016;87;20265;-80
2021/10/13 10:44:44;;;;;;;;;;;;;;;10.12;72.47;100166.20;1629961;86;21121;-80
2021/10/13 10:47:17;;;;;;;;;;;;;;;10.16;72.16;100163.58;1622393;87;20343;-81
2021/10/13 10:49:49;;;;;;;;;;;;;;;10.26;71.85;100164.33;1608696;86;20281;-80
2021/10/13 10:52:33;;;;;;;;;;;;;;;10.15;72.10;100165.41;1624455;86;20139;-81
2021/10/13 10:55:10;;;;;;;;;;;;;;;10.04;72.00;100177.02;1626596;87;20211;-78
2021/10/13 10:57:48;;;;;;;;;;;;;;;10.12;72.42;100181.54;1604113;88;21219;-79
2021/10/13 11:00:29;;;;;;;;;;;;;;;10.09;71.97;100174.43;1599969;87;20557;-81
2021/10/13 11:03:18;;;;;;;;;;;;;;;10.21;71.37;100171.89;1624124;87;20137;-80
2021/10/13 11:05:48;;;;;;;;;;;;;;;10.16;70.96;100172.81;1622642;86;20911;-80
2021/10/13 11:08:16;;;;;;;;;;;;;;;10.45;71.39;100170.44;1608006;87;20218;-79
2021/10/13 11:10:46;;;;;;;;;;;;;;;10.58;71.55;100170.83;1623329;86;21195;-80
2021/10/13 11:13:12;;;;;;;;;;;;;;;10.41;72.10;100183.94;1627143;85;21247;-79
2021/10/13 11:15:44;;;;;;;;;;;;;;;10.62;71.95;100172.19;1625408;87;20606;-80
2021/10/13 11:18:16;;;;;;;;;;;;;;;10.63;70.32;100176.49;1601093;88;20211;-80
2021/10/13 11:20:47;;;;;;;;;;;;;;;10.64;69.99;100171.53;1595170;88;20202;-80
2021/10/13 11:23:16;;;;;;;;;;;;;;;10.80;69.98;100175.25;1599864;88;21841;-80
2021/10/13 11:25:42;;;;;;;;;;;;;;;10.72;70.38;100179.52;1595655;88;20144;-80
2021/10/13 11:28:14;;;;;;;;;;;;;;;10.65;70.06;100181.12;1574426;89;20367;-79
2021/10/13 11:30:53;;;;;;;;;;;;;;;10.57;71.18;100181.08;1606422;88;20558;-82
2021/10/13 11:33:22;;;;;;;;;;;;;;;10.33;72.47;100178.61;1600710;88;20210;-80
2021/10/13 11:35:53;;;;;;;;;;;;;;;10.18;73.46;100189.34;1621669;86;20165;-80
2021/10/13 11:38:28;;;;;;;;;;;;;;;10.22;73.71;100182.30;1596052;88;20159;-80
2021/10/13 11:40:57;;;;;;;;;;;;;;;10.35;73.92;100185.05;1623513;86;20193;-82
2021/10/13 11:43:26;;;;;;;;;;;;;;;10.25;73.58;100187.73;1574664;88;20750;-80
2021/10/13 11:45:57;;;;;;;;;;;;;;;10.22;73.06;100185.41;1596674;88;20134;-78
2021/10/13 11:48:28;;;;;;;;;;;;;;;10.09;73.37;100195.03;1600415;88;20189;-79
2021/10/13 11:51:00;;;;;;;;;;;;;;;10.17;73.79;100206.16;1604455;88;20243;-80
2021/10/13 11:53:28;;;;;;;;;;;;;;;10.28;73.74;100192.70;1615453;86;20451;-80
2021/10/13 11:55:55;;;;;;;;;;;;;;;10.20;73.67;100189.52;1626652;86;20152;-80
2021/10/13 11:58:27;;;;;;;;;;;;;;;10.27;74.09;100195.03;1618232;87;20112;-81
2021/10/13 12:00:59;;;;;;;;;;;;;;;10.36;74.40;100185.38;1599854;87;21224;-80
2021/10/13 12:03:39;;;;;;;;;;;;;;;10.28;75.54;100183.47;1633445;86;21098;-82
2021/10/13 12:06:13;;;;;;;;;;;;;;;10.17;73.82;100192.45;1628328;86;20171;-80
2021/10/13 12:08:50;;;;;;;;;;;;;;;10.14;72.75;100201.17;1635992;86;20216;-79
2021/10/13 12:11:21;;;;;;;;;;;;;;;10.09;73.47;100196.86;1633375;86;20166;-80
2021/10/13 12:13:56;;;;;;;;;;;;;;;10.20;73.38;100208.48;1634685;86;20196;-80
2021/10/13 12:16:30;;;;;;;;;;;;;;;10.05;73.36;100205.07;1632802;86;20156;-80
2021/10/13 12:18:59;;;;;;;;;;;;;;;10.01;73.42;100194.47;1631586;86;20209;-81
2021/10/13 12:21:29;;;;;;;;;;;;;;;10.02;74.21;100192.19;1631405;86;20301;-81
2021/10/13 12:24:01;;;;;;;;;;;;;;;10.03;74.88;100200.41;1601420;87;20211;-79
2021/10/13 12:26:35;;;;;;;;;;;;;;;10.08;76.03;100202.60;1631989;85;20128;-79
2021/10/13 12:29:10;;;;;;;;;;;;;;;9.95;77.77;100205.63;1627145;86;20208;-80
2021/10/13 12:31:42;;;;;;;;;;;;;;;9.96;77.44;100209.08;1622589;86;20161;-79
2021/10/13 12:34:16;;;;;;;;;;;;;;;9.83;78.26;100212.10;1628954;86;20358;-80
2021/10/13 12:36:57;;;;;;;;;;;;;;;9.77;78.49;100207.42;1595445;88;20110;-80
2021/10/13 12:39:26;;;;;;;;;;;;;;;9.87;79.40;100202.92;1599688;88;20320;-79
2021/10/13 12:41:52;;;;;;;;;;;;;;;9.84;79.25;100201.41;1594275;88;20195;-78
2021/10/13 12:44:22;;;;;;;;;;;;;;;9.82;78.76;100202.52;1600217;87;20223;-80
2021/10/13 12:47:04;;;;;;;;;;;;;;;9.86;79.11;100201.25;1597282;87;21430;-79
2021/10/13 12:49:46;;;;;;;;;;;;;;;9.82;78.21;100203.84;1601279;88;20194;-77
2021/10/13 12:52:23;;;;;;;;;;;;;;;9.72;78.92;100212.33;1603048;88;22453;-80
2021/10/13 12:54:55;;;;;;;;;;;;;;;9.68;79.65;100215.27;1595997;88;20186;-79
2021/10/13 12:57:20;;;;;;;;;;;;;;;9.77;79.71;100208.75;1625862;86;20123;-78
2021/10/13 12:59:46;;;;;;;;;;;;;;;9.78;79.86;100209.91;1629582;85;20234;-78